<?xml version="1.0" encoding="utf-8"?>
<gpx xmlns:xsi="http://www.w3.org/2001/XMLSchema-instance" xmlns:xsd="http://www.w3.org/2001/XMLSchema" version="1.1" creator="Shapelink.com" xmlns="http://www.topografix.com/GPX/1/1" xmlns:gpxtpx="http://www.garmin.com/xmlschemas/TrackPointExtension/v1">
  <metadata>
    <name>Gåing 5.00 km, 2012-03-10</name>
    <desc></desc>
    <author><name>Mikael Blom</name></author> 
    <time>2012-03-10T11:35:57Z</time>
  </metadata>
  <trk>
    <name>Gåing 5.00 km, 2012-03-10</name>
    <trkseg>
      <trkpt lat="59.9785227" lon="17.739413">
        <ele>54.4518</ele>
        <time>2012-03-10T11:35:57Z</time>
      </trkpt>
      <trkpt lat="59.9784987" lon="17.7393845">
        <ele>53.4905</ele>
        <time>2012-03-10T11:36:01Z</time>
      </trkpt>
      <trkpt lat="59.9784647" lon="17.7393282">
        <ele>50.6066</ele>
        <time>2012-03-10T11:36:07Z</time>
      </trkpt>
      <trkpt lat="59.9784449" lon="17.7393472">
        <ele>50.6066</ele>
        <time>2012-03-10T11:36:09Z</time>
      </trkpt>
      <trkpt lat="59.9783735" lon="17.739316">
        <ele>50.126</ele>
        <time>2012-03-10T11:36:14Z</time>
      </trkpt>
      <trkpt lat="59.9782648" lon="17.7392956">
        <ele>52.0486</ele>
        <time>2012-03-10T11:36:20Z</time>
      </trkpt>
      <trkpt lat="59.9781851" lon="17.7392844">
        <ele>52.5292</ele>
        <time>2012-03-10T11:36:24Z</time>
      </trkpt>
      <trkpt lat="59.9780695" lon="17.739237">
        <ele>52.0486</ele>
        <time>2012-03-10T11:36:31Z</time>
      </trkpt>
      <trkpt lat="59.9779314" lon="17.7391818">
        <ele>51.5679</ele>
        <time>2012-03-10T11:36:39Z</time>
      </trkpt>
      <trkpt lat="59.9778119" lon="17.7391263">
        <ele>52.0486</ele>
        <time>2012-03-10T11:36:45Z</time>
      </trkpt>
      <trkpt lat="59.9776816" lon="17.7390887">
        <ele>52.0486</ele>
        <time>2012-03-10T11:36:52Z</time>
      </trkpt>
      <trkpt lat="59.9775455" lon="17.739058">
        <ele>53.4905</ele>
        <time>2012-03-10T11:36:58Z</time>
      </trkpt>
      <trkpt lat="59.977408" lon="17.7390404">
        <ele>53.4905</ele>
        <time>2012-03-10T11:37:05Z</time>
      </trkpt>
      <trkpt lat="59.9772955" lon="17.7390642">
        <ele>53.9712</ele>
        <time>2012-03-10T11:37:10Z</time>
      </trkpt>
      <trkpt lat="59.9771627" lon="17.7391097">
        <ele>54.4518</ele>
        <time>2012-03-10T11:37:16Z</time>
      </trkpt>
      <trkpt lat="59.977056" lon="17.7391688">
        <ele>55.8938</ele>
        <time>2012-03-10T11:37:21Z</time>
      </trkpt>
      <trkpt lat="59.9769863" lon="17.7392287">
        <ele>56.3745</ele>
        <time>2012-03-10T11:37:25Z</time>
      </trkpt>
      <trkpt lat="59.9768547" lon="17.7393253">
        <ele>58.2971</ele>
        <time>2012-03-10T11:37:32Z</time>
      </trkpt>
      <trkpt lat="59.9767053" lon="17.7394274">
        <ele>61.181</ele>
        <time>2012-03-10T11:37:40Z</time>
      </trkpt>
      <trkpt lat="59.9766169" lon="17.7394465">
        <ele>61.6617</ele>
        <time>2012-03-10T11:37:45Z</time>
      </trkpt>
      <trkpt lat="59.9765148" lon="17.7394683">
        <ele>61.6617</ele>
        <time>2012-03-10T11:37:51Z</time>
      </trkpt>
      <trkpt lat="59.9763624" lon="17.7395328">
        <ele>63.1036</ele>
        <time>2012-03-10T11:37:59Z</time>
      </trkpt>
      <trkpt lat="59.9762532" lon="17.739596">
        <ele>65.0264</ele>
        <time>2012-03-10T11:38:04Z</time>
      </trkpt>
      <trkpt lat="59.9761112" lon="17.7397118">
        <ele>67.4297</ele>
        <time>2012-03-10T11:38:11Z</time>
      </trkpt>
      <trkpt lat="59.9760217" lon="17.7398236">
        <ele>69.3523</ele>
        <time>2012-03-10T11:38:17Z</time>
      </trkpt>
      <trkpt lat="59.9759565" lon="17.7399398">
        <ele>71.2749</ele>
        <time>2012-03-10T11:38:23Z</time>
      </trkpt>
      <trkpt lat="59.9758922" lon="17.7400702">
        <ele>70.7942</ele>
        <time>2012-03-10T11:38:29Z</time>
      </trkpt>
      <trkpt lat="59.9758435" lon="17.7401834">
        <ele>69.3523</ele>
        <time>2012-03-10T11:38:33Z</time>
      </trkpt>
      <trkpt lat="59.9758305" lon="17.7402863">
        <ele>66.949</ele>
        <time>2012-03-10T11:38:38Z</time>
      </trkpt>
      <trkpt lat="59.9757881" lon="17.7404981">
        <ele>66.4683</ele>
        <time>2012-03-10T11:38:46Z</time>
      </trkpt>
      <trkpt lat="59.9757958" lon="17.7405711">
        <ele>65.0264</ele>
        <time>2012-03-10T11:38:49Z</time>
      </trkpt>
      <trkpt lat="59.9757809" lon="17.7406834">
        <ele>62.6229</ele>
        <time>2012-03-10T11:38:54Z</time>
      </trkpt>
      <trkpt lat="59.9757462" lon="17.7408173">
        <ele>61.181</ele>
        <time>2012-03-10T11:38:59Z</time>
      </trkpt>
      <trkpt lat="59.9757198" lon="17.7409679">
        <ele>59.7391</ele>
        <time>2012-03-10T11:39:05Z</time>
      </trkpt>
      <trkpt lat="59.9756929" lon="17.7410778">
        <ele>59.2584</ele>
        <time>2012-03-10T11:39:09Z</time>
      </trkpt>
      <trkpt lat="59.9756422" lon="17.7413206">
        <ele>57.8165</ele>
        <time>2012-03-10T11:39:17Z</time>
      </trkpt>
      <trkpt lat="59.9755969" lon="17.7414883">
        <ele>59.7391</ele>
        <time>2012-03-10T11:39:22Z</time>
      </trkpt>
      <trkpt lat="59.9755647" lon="17.7416668">
        <ele>58.7777</ele>
        <time>2012-03-10T11:39:27Z</time>
      </trkpt>
      <trkpt lat="59.9755515" lon="17.7417775">
        <ele>57.8165</ele>
        <time>2012-03-10T11:39:32Z</time>
      </trkpt>
      <trkpt lat="59.9755032" lon="17.7419583">
        <ele>58.7777</ele>
        <time>2012-03-10T11:39:39Z</time>
      </trkpt>
      <trkpt lat="59.9755064" lon="17.7419863">
        <ele>58.7777</ele>
        <time>2012-03-10T11:39:40Z</time>
      </trkpt>
      <trkpt lat="59.9754991" lon="17.7420566">
        <ele>56.8551</ele>
        <time>2012-03-10T11:39:43Z</time>
      </trkpt>
      <trkpt lat="59.9754882" lon="17.7422225">
        <ele>55.4131</ele>
        <time>2012-03-10T11:39:49Z</time>
      </trkpt>
      <trkpt lat="59.9754613" lon="17.7423863">
        <ele>53.9712</ele>
        <time>2012-03-10T11:39:56Z</time>
      </trkpt>
      <trkpt lat="59.9753856" lon="17.7426209">
        <ele>56.3745</ele>
        <time>2012-03-10T11:40:03Z</time>
      </trkpt>
      <trkpt lat="59.9752961" lon="17.7428595">
        <ele>60.7003</ele>
        <time>2012-03-10T11:40:09Z</time>
      </trkpt>
      <trkpt lat="59.9751962" lon="17.7430265">
        <ele>65.5071</ele>
        <time>2012-03-10T11:40:14Z</time>
      </trkpt>
      <trkpt lat="59.975181" lon="17.7431975">
        <ele>58.7777</ele>
        <time>2012-03-10T11:40:20Z</time>
      </trkpt>
      <trkpt lat="59.9751646" lon="17.7433585">
        <ele>53.9712</ele>
        <time>2012-03-10T11:40:26Z</time>
      </trkpt>
      <trkpt lat="59.9751707" lon="17.7434861">
        <ele>49.1646</ele>
        <time>2012-03-10T11:40:31Z</time>
      </trkpt>
      <trkpt lat="59.9752052" lon="17.7435569">
        <ele>44.358</ele>
        <time>2012-03-10T11:40:35Z</time>
      </trkpt>
      <trkpt lat="59.9752473" lon="17.7436582">
        <ele>41.9547</ele>
        <time>2012-03-10T11:40:39Z</time>
      </trkpt>
      <trkpt lat="59.9752696" lon="17.7437468">
        <ele>37.6287</ele>
        <time>2012-03-10T11:40:43Z</time>
      </trkpt>
      <trkpt lat="59.9752919" lon="17.7439257">
        <ele>34.2642</ele>
        <time>2012-03-10T11:40:49Z</time>
      </trkpt>
      <trkpt lat="59.9752901" lon="17.7440443">
        <ele>33.7834</ele>
        <time>2012-03-10T11:40:53Z</time>
      </trkpt>
      <trkpt lat="59.9752621" lon="17.7441571">
        <ele>32.8223</ele>
        <time>2012-03-10T11:40:57Z</time>
      </trkpt>
      <trkpt lat="59.9752592" lon="17.7443174">
        <ele>31.8607</ele>
        <time>2012-03-10T11:41:03Z</time>
      </trkpt>
      <trkpt lat="59.9752419" lon="17.7444371">
        <ele>33.7834</ele>
        <time>2012-03-10T11:41:08Z</time>
      </trkpt>
      <trkpt lat="59.97514" lon="17.7446889">
        <ele>38.1094</ele>
        <time>2012-03-10T11:41:15Z</time>
      </trkpt>
      <trkpt lat="59.9750537" lon="17.7448352">
        <ele>39.0707</ele>
        <time>2012-03-10T11:41:20Z</time>
      </trkpt>
      <trkpt lat="59.9750209" lon="17.7450124">
        <ele>40.0321</ele>
        <time>2012-03-10T11:41:24Z</time>
      </trkpt>
      <trkpt lat="59.9749759" lon="17.7451259">
        <ele>39.0707</ele>
        <time>2012-03-10T11:41:29Z</time>
      </trkpt>
      <trkpt lat="59.9748947" lon="17.7453299">
        <ele>39.5513</ele>
        <time>2012-03-10T11:41:36Z</time>
      </trkpt>
      <trkpt lat="59.9748693" lon="17.7454475">
        <ele>35.7061</ele>
        <time>2012-03-10T11:41:41Z</time>
      </trkpt>
      <trkpt lat="59.974817" lon="17.7455595">
        <ele>37.1481</ele>
        <time>2012-03-10T11:41:45Z</time>
      </trkpt>
      <trkpt lat="59.9747905" lon="17.7456094">
        <ele>36.6675</ele>
        <time>2012-03-10T11:41:47Z</time>
      </trkpt>
      <trkpt lat="59.9747573" lon="17.7456869">
        <ele>34.7449</ele>
        <time>2012-03-10T11:41:51Z</time>
      </trkpt>
      <trkpt lat="59.9746491" lon="17.7458719">
        <ele>34.2642</ele>
        <time>2012-03-10T11:41:58Z</time>
      </trkpt>
      <trkpt lat="59.9745773" lon="17.7459962">
        <ele>33.7834</ele>
        <time>2012-03-10T11:42:04Z</time>
      </trkpt>
      <trkpt lat="59.9744836" lon="17.7461786">
        <ele>34.2642</ele>
        <time>2012-03-10T11:42:11Z</time>
      </trkpt>
      <trkpt lat="59.9743465" lon="17.7463344">
        <ele>40.0321</ele>
        <time>2012-03-10T11:42:18Z</time>
      </trkpt>
      <trkpt lat="59.9742797" lon="17.7464454">
        <ele>43.3966</ele>
        <time>2012-03-10T11:42:23Z</time>
      </trkpt>
      <trkpt lat="59.9741797" lon="17.7465945">
        <ele>45.7999</ele>
        <time>2012-03-10T11:42:29Z</time>
      </trkpt>
      <trkpt lat="59.9740538" lon="17.7467463">
        <ele>47.7225</ele>
        <time>2012-03-10T11:42:36Z</time>
      </trkpt>
      <trkpt lat="59.9739607" lon="17.7468627">
        <ele>45.7999</ele>
        <time>2012-03-10T11:42:42Z</time>
      </trkpt>
      <trkpt lat="59.9738851" lon="17.7469369">
        <ele>43.3966</ele>
        <time>2012-03-10T11:42:47Z</time>
      </trkpt>
      <trkpt lat="59.973788" lon="17.7470289">
        <ele>38.5901</ele>
        <time>2012-03-10T11:42:54Z</time>
      </trkpt>
      <trkpt lat="59.9737281" lon="17.7470971">
        <ele>37.1481</ele>
        <time>2012-03-10T11:42:59Z</time>
      </trkpt>
      <trkpt lat="59.9736786" lon="17.7471716">
        <ele>37.1481</ele>
        <time>2012-03-10T11:43:05Z</time>
      </trkpt>
      <trkpt lat="59.9736274" lon="17.7472379">
        <ele>38.5901</ele>
        <time>2012-03-10T11:43:10Z</time>
      </trkpt>
      <trkpt lat="59.973624" lon="17.7472437">
        <ele>38.5901</ele>
        <time>2012-03-10T11:43:11Z</time>
      </trkpt>
      <trkpt lat="59.9735182" lon="17.7474052">
        <ele>41.9547</ele>
        <time>2012-03-10T11:43:18Z</time>
      </trkpt>
      <trkpt lat="59.9734204" lon="17.7474934">
        <ele>41.474</ele>
        <time>2012-03-10T11:43:24Z</time>
      </trkpt>
      <trkpt lat="59.9733048" lon="17.7475876">
        <ele>42.4354</ele>
        <time>2012-03-10T11:43:30Z</time>
      </trkpt>
      <trkpt lat="59.9732073" lon="17.7476689">
        <ele>42.916</ele>
        <time>2012-03-10T11:43:36Z</time>
      </trkpt>
      <trkpt lat="59.9731565" lon="17.7477259">
        <ele>40.9934</ele>
        <time>2012-03-10T11:43:41Z</time>
      </trkpt>
      <trkpt lat="59.9731478" lon="17.7478051">
        <ele>39.5513</ele>
        <time>2012-03-10T11:43:47Z</time>
      </trkpt>
      <trkpt lat="59.9730994" lon="17.7479185">
        <ele>39.5513</ele>
        <time>2012-03-10T11:43:55Z</time>
      </trkpt>
      <trkpt lat="59.9729721" lon="17.7480356">
        <ele>42.916</ele>
        <time>2012-03-10T11:44:00Z</time>
      </trkpt>
      <trkpt lat="59.9728225" lon="17.7481916">
        <ele>46.2806</ele>
        <time>2012-03-10T11:44:07Z</time>
      </trkpt>
      <trkpt lat="59.9727358" lon="17.7483118">
        <ele>46.7612</ele>
        <time>2012-03-10T11:44:13Z</time>
      </trkpt>
      <trkpt lat="59.9726738" lon="17.7484226">
        <ele>45.3192</ele>
        <time>2012-03-10T11:44:19Z</time>
      </trkpt>
      <trkpt lat="59.9726329" lon="17.7485614">
        <ele>42.916</ele>
        <time>2012-03-10T11:44:26Z</time>
      </trkpt>
      <trkpt lat="59.9725937" lon="17.7486966">
        <ele>41.474</ele>
        <time>2012-03-10T11:44:32Z</time>
      </trkpt>
      <trkpt lat="59.972589" lon="17.7487169">
        <ele>41.474</ele>
        <time>2012-03-10T11:44:33Z</time>
      </trkpt>
      <trkpt lat="59.9724913" lon="17.7489089">
        <ele>41.9547</ele>
        <time>2012-03-10T11:44:40Z</time>
      </trkpt>
      <trkpt lat="59.9723926" lon="17.7490877">
        <ele>44.358</ele>
        <time>2012-03-10T11:44:46Z</time>
      </trkpt>
      <trkpt lat="59.9723739" lon="17.7491861">
        <ele>38.5901</ele>
        <time>2012-03-10T11:44:52Z</time>
      </trkpt>
      <trkpt lat="59.9723777" lon="17.7493033">
        <ele>34.7449</ele>
        <time>2012-03-10T11:44:58Z</time>
      </trkpt>
      <trkpt lat="59.9723236" lon="17.7494384">
        <ele>33.7834</ele>
        <time>2012-03-10T11:45:04Z</time>
      </trkpt>
      <trkpt lat="59.9722655" lon="17.7496026">
        <ele>33.3029</ele>
        <time>2012-03-10T11:45:10Z</time>
      </trkpt>
      <trkpt lat="59.9722392" lon="17.7496711">
        <ele>32.3416</ele>
        <time>2012-03-10T11:45:13Z</time>
      </trkpt>
      <trkpt lat="59.9721626" lon="17.749786">
        <ele>32.8223</ele>
        <time>2012-03-10T11:45:19Z</time>
      </trkpt>
      <trkpt lat="59.9720875" lon="17.7500204">
        <ele>33.7834</ele>
        <time>2012-03-10T11:45:27Z</time>
      </trkpt>
      <trkpt lat="59.9720357" lon="17.7501538">
        <ele>33.7834</ele>
        <time>2012-03-10T11:45:32Z</time>
      </trkpt>
      <trkpt lat="59.9719926" lon="17.7503025">
        <ele>34.2642</ele>
        <time>2012-03-10T11:45:37Z</time>
      </trkpt>
      <trkpt lat="59.9719182" lon="17.7504273">
        <ele>36.1868</ele>
        <time>2012-03-10T11:45:43Z</time>
      </trkpt>
      <trkpt lat="59.9718505" lon="17.7505629">
        <ele>35.7061</ele>
        <time>2012-03-10T11:45:49Z</time>
      </trkpt>
      <trkpt lat="59.9717574" lon="17.750748">
        <ele>34.7449</ele>
        <time>2012-03-10T11:45:56Z</time>
      </trkpt>
      <trkpt lat="59.9717443" lon="17.7507531">
        <ele>33.7834</ele>
        <time>2012-03-10T11:45:58Z</time>
      </trkpt>
      <trkpt lat="59.9716984" lon="17.7507727">
        <ele>32.8223</ele>
        <time>2012-03-10T11:46:03Z</time>
      </trkpt>
      <trkpt lat="59.9716293" lon="17.7508477">
        <ele>34.2642</ele>
        <time>2012-03-10T11:46:07Z</time>
      </trkpt>
      <trkpt lat="59.9715033" lon="17.7510313">
        <ele>30.8995</ele>
        <time>2012-03-10T11:46:17Z</time>
      </trkpt>
      <trkpt lat="59.9714078" lon="17.7511756">
        <ele>26.5736</ele>
        <time>2012-03-10T11:46:24Z</time>
      </trkpt>
      <trkpt lat="59.9713196" lon="17.7512513">
        <ele>26.5736</ele>
        <time>2012-03-10T11:46:30Z</time>
      </trkpt>
      <trkpt lat="59.9712337" lon="17.7513639">
        <ele>24.651</ele>
        <time>2012-03-10T11:46:36Z</time>
      </trkpt>
      <trkpt lat="59.9711582" lon="17.751455">
        <ele>22.2476</ele>
        <time>2012-03-10T11:46:42Z</time>
      </trkpt>
      <trkpt lat="59.9710621" lon="17.7515517">
        <ele>22.7283</ele>
        <time>2012-03-10T11:46:47Z</time>
      </trkpt>
      <trkpt lat="59.9710036" lon="17.7516073">
        <ele>19.3638</ele>
        <time>2012-03-10T11:46:52Z</time>
      </trkpt>
      <trkpt lat="59.9709272" lon="17.7517378">
        <ele>18.4023</ele>
        <time>2012-03-10T11:46:58Z</time>
      </trkpt>
      <trkpt lat="59.9708591" lon="17.7518534">
        <ele>17.9218</ele>
        <time>2012-03-10T11:47:04Z</time>
      </trkpt>
      <trkpt lat="59.9707566" lon="17.7519677">
        <ele>22.7283</ele>
        <time>2012-03-10T11:47:09Z</time>
      </trkpt>
      <trkpt lat="59.970666" lon="17.752112">
        <ele>25.6123</ele>
        <time>2012-03-10T11:47:14Z</time>
      </trkpt>
      <trkpt lat="59.9706163" lon="17.7522049">
        <ele>25.6123</ele>
        <time>2012-03-10T11:47:20Z</time>
      </trkpt>
      <trkpt lat="59.9705939" lon="17.752305">
        <ele>24.651</ele>
        <time>2012-03-10T11:47:24Z</time>
      </trkpt>
      <trkpt lat="59.9705536" lon="17.7524336">
        <ele>23.209</ele>
        <time>2012-03-10T11:47:31Z</time>
      </trkpt>
      <trkpt lat="59.9704899" lon="17.7525791">
        <ele>24.651</ele>
        <time>2012-03-10T11:47:36Z</time>
      </trkpt>
      <trkpt lat="59.9704229" lon="17.7527519">
        <ele>25.6123</ele>
        <time>2012-03-10T11:47:42Z</time>
      </trkpt>
      <trkpt lat="59.970355" lon="17.7528552">
        <ele>27.5349</ele>
        <time>2012-03-10T11:47:48Z</time>
      </trkpt>
      <trkpt lat="59.9702883" lon="17.753036">
        <ele>27.0543</ele>
        <time>2012-03-10T11:47:54Z</time>
      </trkpt>
      <trkpt lat="59.9702615" lon="17.7531415">
        <ele>28.4962</ele>
        <time>2012-03-10T11:47:57Z</time>
      </trkpt>
      <trkpt lat="59.9702108" lon="17.7533225">
        <ele>26.0929</ele>
        <time>2012-03-10T11:48:05Z</time>
      </trkpt>
      <trkpt lat="59.9701444" lon="17.7535085">
        <ele>26.0929</ele>
        <time>2012-03-10T11:48:12Z</time>
      </trkpt>
      <trkpt lat="59.9700921" lon="17.7536588">
        <ele>28.0155</ele>
        <time>2012-03-10T11:48:18Z</time>
      </trkpt>
      <trkpt lat="59.9700839" lon="17.7536774">
        <ele>28.0155</ele>
        <time>2012-03-10T11:48:19Z</time>
      </trkpt>
      <trkpt lat="59.9700204" lon="17.7538755">
        <ele>27.5349</ele>
        <time>2012-03-10T11:48:26Z</time>
      </trkpt>
      <trkpt lat="59.96993" lon="17.7540408">
        <ele>28.0155</ele>
        <time>2012-03-10T11:48:33Z</time>
      </trkpt>
      <trkpt lat="59.9698506" lon="17.7542215">
        <ele>28.0155</ele>
        <time>2012-03-10T11:48:41Z</time>
      </trkpt>
      <trkpt lat="59.9697674" lon="17.7543668">
        <ele>30.8995</ele>
        <time>2012-03-10T11:48:47Z</time>
      </trkpt>
      <trkpt lat="59.9696565" lon="17.7545469">
        <ele>33.3029</ele>
        <time>2012-03-10T11:48:54Z</time>
      </trkpt>
      <trkpt lat="59.9695974" lon="17.7546833">
        <ele>31.3801</ele>
        <time>2012-03-10T11:49:00Z</time>
      </trkpt>
      <trkpt lat="59.9695278" lon="17.7548216">
        <ele>30.8995</ele>
        <time>2012-03-10T11:49:06Z</time>
      </trkpt>
      <trkpt lat="59.9694668" lon="17.7550011">
        <ele>28.0155</ele>
        <time>2012-03-10T11:49:14Z</time>
      </trkpt>
      <trkpt lat="59.9694094" lon="17.755143">
        <ele>28.4962</ele>
        <time>2012-03-10T11:49:20Z</time>
      </trkpt>
      <trkpt lat="59.9693487" lon="17.7552836">
        <ele>28.4962</ele>
        <time>2012-03-10T11:49:25Z</time>
      </trkpt>
      <trkpt lat="59.9693109" lon="17.7553684">
        <ele>26.0929</ele>
        <time>2012-03-10T11:49:31Z</time>
      </trkpt>
      <trkpt lat="59.9692938" lon="17.755395">
        <ele>25.1317</ele>
        <time>2012-03-10T11:49:33Z</time>
      </trkpt>
      <trkpt lat="59.9692824" lon="17.7553537">
        <ele>21.2864</ele>
        <time>2012-03-10T11:49:37Z</time>
      </trkpt>
      <trkpt lat="59.9693446" lon="17.7552081">
        <ele>21.767</ele>
        <time>2012-03-10T11:49:43Z</time>
      </trkpt>
      <trkpt lat="59.9693776" lon="17.7551505">
        <ele>22.7283</ele>
        <time>2012-03-10T11:49:45Z</time>
      </trkpt>
      <trkpt lat="59.9694128" lon="17.7550246">
        <ele>26.5736</ele>
        <time>2012-03-10T11:49:52Z</time>
      </trkpt>
      <trkpt lat="59.9694713" lon="17.754878">
        <ele>28.9769</ele>
        <time>2012-03-10T11:49:58Z</time>
      </trkpt>
      <trkpt lat="59.9695632" lon="17.7546781">
        <ele>28.9769</ele>
        <time>2012-03-10T11:50:05Z</time>
      </trkpt>
      <trkpt lat="59.9696414" lon="17.7545579">
        <ele>30.4188</ele>
        <time>2012-03-10T11:50:12Z</time>
      </trkpt>
      <trkpt lat="59.9697222" lon="17.7544156">
        <ele>26.5736</ele>
        <time>2012-03-10T11:50:18Z</time>
      </trkpt>
      <trkpt lat="59.9697265" lon="17.7543909">
        <ele>28.0155</ele>
        <time>2012-03-10T11:50:20Z</time>
      </trkpt>
      <trkpt lat="59.9697569" lon="17.7542973">
        <ele>28.4962</ele>
        <time>2012-03-10T11:50:24Z</time>
      </trkpt>
      <trkpt lat="59.9697932" lon="17.7542077">
        <ele>29.4575</ele>
        <time>2012-03-10T11:50:29Z</time>
      </trkpt>
      <trkpt lat="59.96993" lon="17.7539818">
        <ele>25.1317</ele>
        <time>2012-03-10T11:50:37Z</time>
      </trkpt>
      <trkpt lat="59.9700359" lon="17.7537576">
        <ele>26.0929</ele>
        <time>2012-03-10T11:50:45Z</time>
      </trkpt>
      <trkpt lat="59.9700563" lon="17.7536966">
        <ele>25.6123</ele>
        <time>2012-03-10T11:50:47Z</time>
      </trkpt>
      <trkpt lat="59.9701293" lon="17.7535478">
        <ele>24.651</ele>
        <time>2012-03-10T11:50:53Z</time>
      </trkpt>
      <trkpt lat="59.9701983" lon="17.753382">
        <ele>24.651</ele>
        <time>2012-03-10T11:51:00Z</time>
      </trkpt>
      <trkpt lat="59.9702667" lon="17.7531915">
        <ele>25.1317</ele>
        <time>2012-03-10T11:51:07Z</time>
      </trkpt>
      <trkpt lat="59.97034" lon="17.7529904">
        <ele>26.5736</ele>
        <time>2012-03-10T11:51:14Z</time>
      </trkpt>
      <trkpt lat="59.9704024" lon="17.7528153">
        <ele>26.5736</ele>
        <time>2012-03-10T11:51:21Z</time>
      </trkpt>
      <trkpt lat="59.9704731" lon="17.7526317">
        <ele>25.6123</ele>
        <time>2012-03-10T11:51:28Z</time>
      </trkpt>
      <trkpt lat="59.9705719" lon="17.7524299">
        <ele>24.1703</ele>
        <time>2012-03-10T11:51:38Z</time>
      </trkpt>
      <trkpt lat="59.9706462" lon="17.7522657">
        <ele>24.1703</ele>
        <time>2012-03-10T11:51:45Z</time>
      </trkpt>
      <trkpt lat="59.9707411" lon="17.7521272">
        <ele>22.7283</ele>
        <time>2012-03-10T11:51:53Z</time>
      </trkpt>
      <trkpt lat="59.9708107" lon="17.7519875">
        <ele>22.2476</ele>
        <time>2012-03-10T11:51:59Z</time>
      </trkpt>
      <trkpt lat="59.9708914" lon="17.7518865">
        <ele>21.767</ele>
        <time>2012-03-10T11:52:05Z</time>
      </trkpt>
      <trkpt lat="59.9709534" lon="17.7517435">
        <ele>23.209</ele>
        <time>2012-03-10T11:52:10Z</time>
      </trkpt>
      <trkpt lat="59.971035" lon="17.7516442">
        <ele>23.209</ele>
        <time>2012-03-10T11:52:16Z</time>
      </trkpt>
      <trkpt lat="59.9710885" lon="17.7515083">
        <ele>24.651</ele>
        <time>2012-03-10T11:52:22Z</time>
      </trkpt>
      <trkpt lat="59.971167" lon="17.7513804">
        <ele>24.1703</ele>
        <time>2012-03-10T11:52:28Z</time>
      </trkpt>
      <trkpt lat="59.9712859" lon="17.7512678">
        <ele>23.209</ele>
        <time>2012-03-10T11:52:37Z</time>
      </trkpt>
      <trkpt lat="59.9714104" lon="17.7511323">
        <ele>24.651</ele>
        <time>2012-03-10T11:52:45Z</time>
      </trkpt>
      <trkpt lat="59.9715234" lon="17.7509607">
        <ele>26.5736</ele>
        <time>2012-03-10T11:52:53Z</time>
      </trkpt>
      <trkpt lat="59.9715979" lon="17.7508898">
        <ele>26.0929</ele>
        <time>2012-03-10T11:52:58Z</time>
      </trkpt>
      <trkpt lat="59.9717022" lon="17.750749">
        <ele>26.0929</ele>
        <time>2012-03-10T11:53:05Z</time>
      </trkpt>
      <trkpt lat="59.9717989" lon="17.750548">
        <ele>27.0543</ele>
        <time>2012-03-10T11:53:13Z</time>
      </trkpt>
      <trkpt lat="59.9718958" lon="17.7503774">
        <ele>27.5349</ele>
        <time>2012-03-10T11:53:22Z</time>
      </trkpt>
      <trkpt lat="59.9719942" lon="17.7502101">
        <ele>27.5349</ele>
        <time>2012-03-10T11:53:31Z</time>
      </trkpt>
      <trkpt lat="59.9720308" lon="17.7500537">
        <ele>28.9769</ele>
        <time>2012-03-10T11:53:37Z</time>
      </trkpt>
      <trkpt lat="59.9721096" lon="17.7498775">
        <ele>27.5349</ele>
        <time>2012-03-10T11:53:44Z</time>
      </trkpt>
      <trkpt lat="59.9721209" lon="17.7498482">
        <ele>27.5349</ele>
        <time>2012-03-10T11:53:45Z</time>
      </trkpt>
      <trkpt lat="59.9721988" lon="17.7496522">
        <ele>27.0543</ele>
        <time>2012-03-10T11:53:52Z</time>
      </trkpt>
      <trkpt lat="59.9722677" lon="17.7494796">
        <ele>27.5349</ele>
        <time>2012-03-10T11:53:59Z</time>
      </trkpt>
      <trkpt lat="59.9722771" lon="17.7494565">
        <ele>27.5349</ele>
        <time>2012-03-10T11:54:00Z</time>
      </trkpt>
      <trkpt lat="59.9723543" lon="17.7492751">
        <ele>27.0543</ele>
        <time>2012-03-10T11:54:07Z</time>
      </trkpt>
      <trkpt lat="59.9724124" lon="17.7491057">
        <ele>26.0929</ele>
        <time>2012-03-10T11:54:13Z</time>
      </trkpt>
      <trkpt lat="59.9724863" lon="17.7489831">
        <ele>26.5736</ele>
        <time>2012-03-10T11:54:19Z</time>
      </trkpt>
      <trkpt lat="59.9725657" lon="17.7488319">
        <ele>28.9769</ele>
        <time>2012-03-10T11:54:25Z</time>
      </trkpt>
      <trkpt lat="59.9725909" lon="17.7487861">
        <ele>30.4188</ele>
        <time>2012-03-10T11:54:27Z</time>
      </trkpt>
      <trkpt lat="59.9726395" lon="17.7486282">
        <ele>29.4575</ele>
        <time>2012-03-10T11:54:33Z</time>
      </trkpt>
      <trkpt lat="59.9726899" lon="17.7485151">
        <ele>28.4962</ele>
        <time>2012-03-10T11:54:38Z</time>
      </trkpt>
      <trkpt lat="59.9727583" lon="17.7483116">
        <ele>29.9381</ele>
        <time>2012-03-10T11:54:45Z</time>
      </trkpt>
      <trkpt lat="59.9728505" lon="17.7481479">
        <ele>30.8995</ele>
        <time>2012-03-10T11:54:52Z</time>
      </trkpt>
      <trkpt lat="59.9729251" lon="17.7480319">
        <ele>29.4575</ele>
        <time>2012-03-10T11:54:58Z</time>
      </trkpt>
      <trkpt lat="59.9730224" lon="17.7478992">
        <ele>28.9769</ele>
        <time>2012-03-10T11:55:05Z</time>
      </trkpt>
      <trkpt lat="59.9731058" lon="17.747761">
        <ele>26.0929</ele>
        <time>2012-03-10T11:55:12Z</time>
      </trkpt>
      <trkpt lat="59.9732353" lon="17.7476326">
        <ele>23.6896</ele>
        <time>2012-03-10T11:55:21Z</time>
      </trkpt>
      <trkpt lat="59.9733224" lon="17.7475503">
        <ele>22.2476</ele>
        <time>2012-03-10T11:55:27Z</time>
      </trkpt>
      <trkpt lat="59.9733892" lon="17.747481">
        <ele>22.2476</ele>
        <time>2012-03-10T11:55:32Z</time>
      </trkpt>
      <trkpt lat="59.9734639" lon="17.7473972">
        <ele>21.767</ele>
        <time>2012-03-10T11:55:38Z</time>
      </trkpt>
      <trkpt lat="59.9735349" lon="17.7473338">
        <ele>21.2864</ele>
        <time>2012-03-10T11:55:44Z</time>
      </trkpt>
      <trkpt lat="59.97361" lon="17.7472559">
        <ele>20.8057</ele>
        <time>2012-03-10T11:55:50Z</time>
      </trkpt>
      <trkpt lat="59.9736441" lon="17.7472114">
        <ele>20.325</ele>
        <time>2012-03-10T11:55:53Z</time>
      </trkpt>
      <trkpt lat="59.9737227" lon="17.7471058">
        <ele>20.8057</ele>
        <time>2012-03-10T11:55:59Z</time>
      </trkpt>
      <trkpt lat="59.9737599" lon="17.7470398">
        <ele>20.325</ele>
        <time>2012-03-10T11:56:02Z</time>
      </trkpt>
      <trkpt lat="59.973844" lon="17.7468932">
        <ele>21.767</ele>
        <time>2012-03-10T11:56:08Z</time>
      </trkpt>
      <trkpt lat="59.973986" lon="17.7467872">
        <ele>25.6123</ele>
        <time>2012-03-10T11:56:17Z</time>
      </trkpt>
      <trkpt lat="59.9740762" lon="17.7466458">
        <ele>26.5736</ele>
        <time>2012-03-10T11:56:24Z</time>
      </trkpt>
      <trkpt lat="59.9741798" lon="17.7465343">
        <ele>28.4962</ele>
        <time>2012-03-10T11:56:30Z</time>
      </trkpt>
      <trkpt lat="59.9742707" lon="17.7464117">
        <ele>28.4962</ele>
        <time>2012-03-10T11:56:36Z</time>
      </trkpt>
      <trkpt lat="59.9743455" lon="17.746336">
        <ele>28.9769</ele>
        <time>2012-03-10T11:56:41Z</time>
      </trkpt>
      <trkpt lat="59.974468" lon="17.7461805">
        <ele>29.4575</ele>
        <time>2012-03-10T11:56:49Z</time>
      </trkpt>
      <trkpt lat="59.974565" lon="17.7460662">
        <ele>29.9381</ele>
        <time>2012-03-10T11:56:56Z</time>
      </trkpt>
      <trkpt lat="59.9746266" lon="17.7459346">
        <ele>31.3801</ele>
        <time>2012-03-10T11:57:02Z</time>
      </trkpt>
      <trkpt lat="59.9746781" lon="17.7458249">
        <ele>30.8995</ele>
        <time>2012-03-10T11:57:07Z</time>
      </trkpt>
      <trkpt lat="59.9747649" lon="17.7456466">
        <ele>32.3416</ele>
        <time>2012-03-10T11:57:14Z</time>
      </trkpt>
      <trkpt lat="59.9748253" lon="17.7454938">
        <ele>32.3416</ele>
        <time>2012-03-10T11:57:20Z</time>
      </trkpt>
      <trkpt lat="59.9748869" lon="17.7453357">
        <ele>33.3029</ele>
        <time>2012-03-10T11:57:26Z</time>
      </trkpt>
      <trkpt lat="59.9749464" lon="17.7451916">
        <ele>31.3801</ele>
        <time>2012-03-10T11:57:32Z</time>
      </trkpt>
      <trkpt lat="59.9750053" lon="17.7449821">
        <ele>31.8607</ele>
        <time>2012-03-10T11:57:39Z</time>
      </trkpt>
      <trkpt lat="59.9750624" lon="17.7448026">
        <ele>32.3416</ele>
        <time>2012-03-10T11:57:45Z</time>
      </trkpt>
      <trkpt lat="59.975119" lon="17.7446296">
        <ele>31.8607</ele>
        <time>2012-03-10T11:57:51Z</time>
      </trkpt>
      <trkpt lat="59.9752017" lon="17.744398">
        <ele>31.8607</ele>
        <time>2012-03-10T11:57:59Z</time>
      </trkpt>
      <trkpt lat="59.9752784" lon="17.7441305">
        <ele>32.3416</ele>
        <time>2012-03-10T11:58:08Z</time>
      </trkpt>
      <trkpt lat="59.9753037" lon="17.7439086">
        <ele>32.3416</ele>
        <time>2012-03-10T11:58:15Z</time>
      </trkpt>
      <trkpt lat="59.9753261" lon="17.7437542">
        <ele>31.8607</ele>
        <time>2012-03-10T11:58:20Z</time>
      </trkpt>
      <trkpt lat="59.975387" lon="17.7434104">
        <ele>31.3801</ele>
        <time>2012-03-10T11:58:31Z</time>
      </trkpt>
      <trkpt lat="59.9754248" lon="17.7431949">
        <ele>31.8607</ele>
        <time>2012-03-10T11:58:38Z</time>
      </trkpt>
      <trkpt lat="59.975483" lon="17.7429242">
        <ele>32.8223</ele>
        <time>2012-03-10T11:58:47Z</time>
      </trkpt>
      <trkpt lat="59.9755404" lon="17.742703">
        <ele>32.8223</ele>
        <time>2012-03-10T11:58:55Z</time>
      </trkpt>
      <trkpt lat="59.9755999" lon="17.7424915">
        <ele>32.8223</ele>
        <time>2012-03-10T11:59:03Z</time>
      </trkpt>
      <trkpt lat="59.9756512" lon="17.7422593">
        <ele>32.3416</ele>
        <time>2012-03-10T11:59:11Z</time>
      </trkpt>
      <trkpt lat="59.9756938" lon="17.7420816">
        <ele>32.8223</ele>
        <time>2012-03-10T11:59:17Z</time>
      </trkpt>
      <trkpt lat="59.9757568" lon="17.7418496">
        <ele>32.3416</ele>
        <time>2012-03-10T11:59:25Z</time>
      </trkpt>
      <trkpt lat="59.9758147" lon="17.741606">
        <ele>33.3029</ele>
        <time>2012-03-10T11:59:33Z</time>
      </trkpt>
      <trkpt lat="59.9758824" lon="17.7413562">
        <ele>35.2255</ele>
        <time>2012-03-10T11:59:41Z</time>
      </trkpt>
      <trkpt lat="59.9759662" lon="17.7410685">
        <ele>35.7061</ele>
        <time>2012-03-10T11:59:51Z</time>
      </trkpt>
      <trkpt lat="59.9760113" lon="17.7408886">
        <ele>35.2255</ele>
        <time>2012-03-10T11:59:57Z</time>
      </trkpt>
      <trkpt lat="59.9760642" lon="17.7406839">
        <ele>35.2255</ele>
        <time>2012-03-10T12:00:04Z</time>
      </trkpt>
      <trkpt lat="59.976118" lon="17.7404999">
        <ele>32.8223</ele>
        <time>2012-03-10T12:00:10Z</time>
      </trkpt>
      <trkpt lat="59.9761412" lon="17.7404665">
        <ele>32.3416</ele>
        <time>2012-03-10T12:00:12Z</time>
      </trkpt>
      <trkpt lat="59.9761891" lon="17.7403736">
        <ele>33.7834</ele>
        <time>2012-03-10T12:00:16Z</time>
      </trkpt>
      <trkpt lat="59.9762693" lon="17.7401518">
        <ele>34.7449</ele>
        <time>2012-03-10T12:00:24Z</time>
      </trkpt>
      <trkpt lat="59.9762995" lon="17.7400229">
        <ele>34.7449</ele>
        <time>2012-03-10T12:00:29Z</time>
      </trkpt>
      <trkpt lat="59.9762829" lon="17.7399122">
        <ele>34.2642</ele>
        <time>2012-03-10T12:00:33Z</time>
      </trkpt>
      <trkpt lat="59.9762273" lon="17.7398094">
        <ele>33.3029</ele>
        <time>2012-03-10T12:00:37Z</time>
      </trkpt>
      <trkpt lat="59.9761191" lon="17.7396765">
        <ele>30.4188</ele>
        <time>2012-03-10T12:00:43Z</time>
      </trkpt>
      <trkpt lat="59.9760105" lon="17.7395588">
        <ele>27.5349</ele>
        <time>2012-03-10T12:00:49Z</time>
      </trkpt>
      <trkpt lat="59.9759076" lon="17.7394449">
        <ele>25.6123</ele>
        <time>2012-03-10T12:00:55Z</time>
      </trkpt>
      <trkpt lat="59.9758726" lon="17.7393715">
        <ele>27.0543</ele>
        <time>2012-03-10T12:00:58Z</time>
      </trkpt>
      <trkpt lat="59.9757642" lon="17.7391481">
        <ele>26.5736</ele>
        <time>2012-03-10T12:01:06Z</time>
      </trkpt>
      <trkpt lat="59.9756918" lon="17.7390253">
        <ele>26.5736</ele>
        <time>2012-03-10T12:01:11Z</time>
      </trkpt>
      <trkpt lat="59.9756524" lon="17.7389783">
        <ele>25.1317</ele>
        <time>2012-03-10T12:01:15Z</time>
      </trkpt>
      <trkpt lat="59.9755835" lon="17.7388441">
        <ele>21.767</ele>
        <time>2012-03-10T12:01:21Z</time>
      </trkpt>
      <trkpt lat="59.9755036" lon="17.7387078">
        <ele>22.2476</ele>
        <time>2012-03-10T12:01:28Z</time>
      </trkpt>
      <trkpt lat="59.9754077" lon="17.738518">
        <ele>21.2864</ele>
        <time>2012-03-10T12:01:36Z</time>
      </trkpt>
      <trkpt lat="59.9753041" lon="17.7383215">
        <ele>22.2476</ele>
        <time>2012-03-10T12:01:44Z</time>
      </trkpt>
      <trkpt lat="59.9752241" lon="17.7381524">
        <ele>21.767</ele>
        <time>2012-03-10T12:01:51Z</time>
      </trkpt>
      <trkpt lat="59.9751016" lon="17.7379325">
        <ele>23.209</ele>
        <time>2012-03-10T12:02:01Z</time>
      </trkpt>
      <trkpt lat="59.9749957" lon="17.7377325">
        <ele>25.1317</ele>
        <time>2012-03-10T12:02:10Z</time>
      </trkpt>
      <trkpt lat="59.9749059" lon="17.737589">
        <ele>24.651</ele>
        <time>2012-03-10T12:02:17Z</time>
      </trkpt>
      <trkpt lat="59.9748334" lon="17.7374828">
        <ele>23.6896</ele>
        <time>2012-03-10T12:02:22Z</time>
      </trkpt>
      <trkpt lat="59.9747294" lon="17.7373004">
        <ele>22.2476</ele>
        <time>2012-03-10T12:02:30Z</time>
      </trkpt>
      <trkpt lat="59.9746802" lon="17.7371368">
        <ele>22.2476</ele>
        <time>2012-03-10T12:02:36Z</time>
      </trkpt>
      <trkpt lat="59.9746286" lon="17.7369159">
        <ele>22.2476</ele>
        <time>2012-03-10T12:02:44Z</time>
      </trkpt>
      <trkpt lat="59.9745821" lon="17.7367974">
        <ele>22.7283</ele>
        <time>2012-03-10T12:02:49Z</time>
      </trkpt>
      <trkpt lat="59.9745406" lon="17.7366482">
        <ele>24.1703</ele>
        <time>2012-03-10T12:02:55Z</time>
      </trkpt>
      <trkpt lat="59.9744948" lon="17.7364859">
        <ele>23.6896</ele>
        <time>2012-03-10T12:03:01Z</time>
      </trkpt>
      <trkpt lat="59.9744568" lon="17.7363137">
        <ele>22.7283</ele>
        <time>2012-03-10T12:03:07Z</time>
      </trkpt>
      <trkpt lat="59.9744044" lon="17.7360018">
        <ele>23.209</ele>
        <time>2012-03-10T12:03:17Z</time>
      </trkpt>
      <trkpt lat="59.974362" lon="17.7357863">
        <ele>21.767</ele>
        <time>2012-03-10T12:03:24Z</time>
      </trkpt>
      <trkpt lat="59.9743309" lon="17.7355929">
        <ele>21.2864</ele>
        <time>2012-03-10T12:03:30Z</time>
      </trkpt>
      <trkpt lat="59.9743139" lon="17.7354097">
        <ele>21.767</ele>
        <time>2012-03-10T12:03:36Z</time>
      </trkpt>
      <trkpt lat="59.9742969" lon="17.7351507">
        <ele>24.1703</ele>
        <time>2012-03-10T12:03:44Z</time>
      </trkpt>
      <trkpt lat="59.9742817" lon="17.7349103">
        <ele>27.0543</ele>
        <time>2012-03-10T12:03:51Z</time>
      </trkpt>
      <trkpt lat="59.9742703" lon="17.7346394">
        <ele>27.5349</ele>
        <time>2012-03-10T12:03:59Z</time>
      </trkpt>
      <trkpt lat="59.9742728" lon="17.7343622">
        <ele>28.4962</ele>
        <time>2012-03-10T12:04:07Z</time>
      </trkpt>
      <trkpt lat="59.9742999" lon="17.7339508">
        <ele>30.8995</ele>
        <time>2012-03-10T12:04:19Z</time>
      </trkpt>
      <trkpt lat="59.9743118" lon="17.7336474">
        <ele>32.3416</ele>
        <time>2012-03-10T12:04:28Z</time>
      </trkpt>
      <trkpt lat="59.9743087" lon="17.7333773">
        <ele>34.7449</ele>
        <time>2012-03-10T12:04:35Z</time>
      </trkpt>
      <trkpt lat="59.974317" lon="17.7331361">
        <ele>36.6675</ele>
        <time>2012-03-10T12:04:42Z</time>
      </trkpt>
      <trkpt lat="59.974314" lon="17.7330572">
        <ele>37.1481</ele>
        <time>2012-03-10T12:04:44Z</time>
      </trkpt>
      <trkpt lat="59.9742969" lon="17.7328227">
        <ele>38.1094</ele>
        <time>2012-03-10T12:04:51Z</time>
      </trkpt>
      <trkpt lat="59.9742914" lon="17.7326518">
        <ele>39.0707</ele>
        <time>2012-03-10T12:04:56Z</time>
      </trkpt>
      <trkpt lat="59.9743211" lon="17.7323688">
        <ele>40.9934</ele>
        <time>2012-03-10T12:05:05Z</time>
      </trkpt>
      <trkpt lat="59.9743226" lon="17.7321924">
        <ele>41.474</ele>
        <time>2012-03-10T12:05:10Z</time>
      </trkpt>
      <trkpt lat="59.9743155" lon="17.7321535">
        <ele>40.9934</ele>
        <time>2012-03-10T12:05:11Z</time>
      </trkpt>
      <trkpt lat="59.9743101" lon="17.7320146">
        <ele>40.0321</ele>
        <time>2012-03-10T12:05:15Z</time>
      </trkpt>
      <trkpt lat="59.9742914" lon="17.7317531">
        <ele>37.1481</ele>
        <time>2012-03-10T12:05:23Z</time>
      </trkpt>
      <trkpt lat="59.9742921" lon="17.7314644">
        <ele>33.7834</ele>
        <time>2012-03-10T12:05:32Z</time>
      </trkpt>
      <trkpt lat="59.9743054" lon="17.7311957">
        <ele>31.3801</ele>
        <time>2012-03-10T12:05:40Z</time>
      </trkpt>
      <trkpt lat="59.9743185" lon="17.730994">
        <ele>30.4188</ele>
        <time>2012-03-10T12:05:46Z</time>
      </trkpt>
      <trkpt lat="59.9743297" lon="17.7307627">
        <ele>30.4188</ele>
        <time>2012-03-10T12:05:53Z</time>
      </trkpt>
      <trkpt lat="59.9743489" lon="17.7305827">
        <ele>30.4188</ele>
        <time>2012-03-10T12:05:59Z</time>
      </trkpt>
      <trkpt lat="59.9743898" lon="17.730428">
        <ele>30.4188</ele>
        <time>2012-03-10T12:06:05Z</time>
      </trkpt>
      <trkpt lat="59.9744071" lon="17.7302368">
        <ele>30.8995</ele>
        <time>2012-03-10T12:06:11Z</time>
      </trkpt>
      <trkpt lat="59.9744282" lon="17.7300209">
        <ele>31.8607</ele>
        <time>2012-03-10T12:06:17Z</time>
      </trkpt>
      <trkpt lat="59.9744424" lon="17.7298814">
        <ele>32.8223</ele>
        <time>2012-03-10T12:06:21Z</time>
      </trkpt>
      <trkpt lat="59.9744532" lon="17.7297257">
        <ele>31.8607</ele>
        <time>2012-03-10T12:06:26Z</time>
      </trkpt>
      <trkpt lat="59.9744537" lon="17.7295627">
        <ele>31.8607</ele>
        <time>2012-03-10T12:06:31Z</time>
      </trkpt>
      <trkpt lat="59.9744541" lon="17.729496">
        <ele>31.3801</ele>
        <time>2012-03-10T12:06:33Z</time>
      </trkpt>
      <trkpt lat="59.9744489" lon="17.7292535">
        <ele>29.4575</ele>
        <time>2012-03-10T12:06:40Z</time>
      </trkpt>
      <trkpt lat="59.9744546" lon="17.7289853">
        <ele>29.4575</ele>
        <time>2012-03-10T12:06:48Z</time>
      </trkpt>
      <trkpt lat="59.9744448" lon="17.7287646">
        <ele>28.9769</ele>
        <time>2012-03-10T12:06:55Z</time>
      </trkpt>
      <trkpt lat="59.9744315" lon="17.7285609">
        <ele>27.0543</ele>
        <time>2012-03-10T12:07:01Z</time>
      </trkpt>
      <trkpt lat="59.9744167" lon="17.7282424">
        <ele>27.0543</ele>
        <time>2012-03-10T12:07:10Z</time>
      </trkpt>
      <trkpt lat="59.974415" lon="17.7279628">
        <ele>28.4962</ele>
        <time>2012-03-10T12:07:19Z</time>
      </trkpt>
      <trkpt lat="59.9744173" lon="17.7277503">
        <ele>27.5349</ele>
        <time>2012-03-10T12:07:25Z</time>
      </trkpt>
      <trkpt lat="59.9744199" lon="17.727559">
        <ele>27.5349</ele>
        <time>2012-03-10T12:07:31Z</time>
      </trkpt>
      <trkpt lat="59.974425" lon="17.7273555">
        <ele>27.0543</ele>
        <time>2012-03-10T12:07:37Z</time>
      </trkpt>
      <trkpt lat="59.9744061" lon="17.7271287">
        <ele>25.1317</ele>
        <time>2012-03-10T12:07:45Z</time>
      </trkpt>
      <trkpt lat="59.9743755" lon="17.7269515">
        <ele>24.1703</ele>
        <time>2012-03-10T12:07:51Z</time>
      </trkpt>
      <trkpt lat="59.974381" lon="17.7266342">
        <ele>25.1317</ele>
        <time>2012-03-10T12:08:00Z</time>
      </trkpt>
      <trkpt lat="59.9743676" lon="17.7264574">
        <ele>23.6896</ele>
        <time>2012-03-10T12:08:05Z</time>
      </trkpt>
      <trkpt lat="59.9743652" lon="17.7264212">
        <ele>23.6896</ele>
        <time>2012-03-10T12:08:06Z</time>
      </trkpt>
      <trkpt lat="59.9743666" lon="17.7261951">
        <ele>22.7283</ele>
        <time>2012-03-10T12:08:13Z</time>
      </trkpt>
      <trkpt lat="59.9743756" lon="17.7261056">
        <ele>23.6896</ele>
        <time>2012-03-10T12:08:16Z</time>
      </trkpt>
      <trkpt lat="59.9743268" lon="17.7258622">
        <ele>21.767</ele>
        <time>2012-03-10T12:08:23Z</time>
      </trkpt>
      <trkpt lat="59.9743205" lon="17.7257015">
        <ele>19.3638</ele>
        <time>2012-03-10T12:08:28Z</time>
      </trkpt>
      <trkpt lat="59.9742875" lon="17.7253852">
        <ele>20.325</ele>
        <time>2012-03-10T12:08:37Z</time>
      </trkpt>
      <trkpt lat="59.9742722" lon="17.7252251">
        <ele>20.8057</ele>
        <time>2012-03-10T12:08:42Z</time>
      </trkpt>
      <trkpt lat="59.9742211" lon="17.7249926">
        <ele>21.2864</ele>
        <time>2012-03-10T12:08:48Z</time>
      </trkpt>
      <trkpt lat="59.9742045" lon="17.7248636">
        <ele>21.767</ele>
        <time>2012-03-10T12:08:53Z</time>
      </trkpt>
      <trkpt lat="59.9742035" lon="17.7248318">
        <ele>21.2864</ele>
        <time>2012-03-10T12:08:54Z</time>
      </trkpt>
      <trkpt lat="59.9742015" lon="17.7247519">
        <ele>22.7283</ele>
        <time>2012-03-10T12:08:57Z</time>
      </trkpt>
      <trkpt lat="59.9742004" lon="17.7246637">
        <ele>23.209</ele>
        <time>2012-03-10T12:09:00Z</time>
      </trkpt>
      <trkpt lat="59.9741733" lon="17.7245259">
        <ele>22.7283</ele>
        <time>2012-03-10T12:09:04Z</time>
      </trkpt>
      <trkpt lat="59.9741435" lon="17.724314">
        <ele>22.7283</ele>
        <time>2012-03-10T12:09:11Z</time>
      </trkpt>
      <trkpt lat="59.9741036" lon="17.7240966">
        <ele>23.209</ele>
        <time>2012-03-10T12:09:17Z</time>
      </trkpt>
      <trkpt lat="59.9740655" lon="17.7239258">
        <ele>22.7283</ele>
        <time>2012-03-10T12:09:22Z</time>
      </trkpt>
      <trkpt lat="59.9740247" lon="17.7236638">
        <ele>24.1703</ele>
        <time>2012-03-10T12:09:30Z</time>
      </trkpt>
      <trkpt lat="59.9740206" lon="17.7236279">
        <ele>24.1703</ele>
        <time>2012-03-10T12:09:31Z</time>
      </trkpt>
      <trkpt lat="59.9740146" lon="17.7235886">
        <ele>23.6896</ele>
        <time>2012-03-10T12:09:32Z</time>
      </trkpt>
      <trkpt lat="59.9740824" lon="17.723573">
        <ele>24.1703</ele>
        <time>2012-03-10T12:09:36Z</time>
      </trkpt>
      <trkpt lat="59.974098" lon="17.7236155">
        <ele>21.767</ele>
        <time>2012-03-10T12:09:38Z</time>
      </trkpt>
      <trkpt lat="59.9741474" lon="17.7238045">
        <ele>21.2864</ele>
        <time>2012-03-10T12:09:44Z</time>
      </trkpt>
      <trkpt lat="59.9741749" lon="17.7240267">
        <ele>16.9604</ele>
        <time>2012-03-10T12:09:51Z</time>
      </trkpt>
      <trkpt lat="59.974215" lon="17.7242472">
        <ele>15.999</ele>
        <time>2012-03-10T12:09:58Z</time>
      </trkpt>
      <trkpt lat="59.9742731" lon="17.7244938">
        <ele>18.8831</ele>
        <time>2012-03-10T12:10:06Z</time>
      </trkpt>
      <trkpt lat="59.9743428" lon="17.7247811">
        <ele>24.1703</ele>
        <time>2012-03-10T12:10:15Z</time>
      </trkpt>
      <trkpt lat="59.974376" lon="17.7249765">
        <ele>24.1703</ele>
        <time>2012-03-10T12:10:22Z</time>
      </trkpt>
      <trkpt lat="59.9743888" lon="17.7252271">
        <ele>22.2476</ele>
        <time>2012-03-10T12:10:29Z</time>
      </trkpt>
      <trkpt lat="59.9743834" lon="17.7253883">
        <ele>21.767</ele>
        <time>2012-03-10T12:10:35Z</time>
      </trkpt>
      <trkpt lat="59.9743699" lon="17.7255964">
        <ele>23.6896</ele>
        <time>2012-03-10T12:10:40Z</time>
      </trkpt>
      <trkpt lat="59.9743708" lon="17.7258791">
        <ele>20.325</ele>
        <time>2012-03-10T12:10:49Z</time>
      </trkpt>
      <trkpt lat="59.9743791" lon="17.7260865">
        <ele>19.3638</ele>
        <time>2012-03-10T12:10:56Z</time>
      </trkpt>
      <trkpt lat="59.9743803" lon="17.7262697">
        <ele>17.9218</ele>
        <time>2012-03-10T12:11:02Z</time>
      </trkpt>
      <trkpt lat="59.9743983" lon="17.7264211">
        <ele>18.4023</ele>
        <time>2012-03-10T12:11:07Z</time>
      </trkpt>
      <trkpt lat="59.9743956" lon="17.7266651">
        <ele>17.4412</ele>
        <time>2012-03-10T12:11:14Z</time>
      </trkpt>
      <trkpt lat="59.974404" lon="17.7268588">
        <ele>18.4023</ele>
        <time>2012-03-10T12:11:20Z</time>
      </trkpt>
      <trkpt lat="59.9744228" lon="17.7270863">
        <ele>17.9218</ele>
        <time>2012-03-10T12:11:27Z</time>
      </trkpt>
      <trkpt lat="59.9744252" lon="17.7273033">
        <ele>18.8831</ele>
        <time>2012-03-10T12:11:33Z</time>
      </trkpt>
      <trkpt lat="59.9744263" lon="17.7275323">
        <ele>15.999</ele>
        <time>2012-03-10T12:11:40Z</time>
      </trkpt>
      <trkpt lat="59.9744238" lon="17.7277405">
        <ele>15.999</ele>
        <time>2012-03-10T12:11:47Z</time>
      </trkpt>
      <trkpt lat="59.9744278" lon="17.7279256">
        <ele>15.999</ele>
        <time>2012-03-10T12:11:52Z</time>
      </trkpt>
      <trkpt lat="59.9744303" lon="17.7281653">
        <ele>15.999</ele>
        <time>2012-03-10T12:11:59Z</time>
      </trkpt>
      <trkpt lat="59.9744307" lon="17.7283189">
        <ele>15.5184</ele>
        <time>2012-03-10T12:12:04Z</time>
      </trkpt>
      <trkpt lat="59.974447" lon="17.7285496">
        <ele>15.999</ele>
        <time>2012-03-10T12:12:11Z</time>
      </trkpt>
      <trkpt lat="59.9744578" lon="17.7287733">
        <ele>16.4797</ele>
        <time>2012-03-10T12:12:18Z</time>
      </trkpt>
      <trkpt lat="59.9744615" lon="17.7289706">
        <ele>16.4797</ele>
        <time>2012-03-10T12:12:24Z</time>
      </trkpt>
      <trkpt lat="59.974476" lon="17.7292227">
        <ele>16.9604</ele>
        <time>2012-03-10T12:12:32Z</time>
      </trkpt>
      <trkpt lat="59.9744683" lon="17.7294132">
        <ele>15.999</ele>
        <time>2012-03-10T12:12:38Z</time>
      </trkpt>
      <trkpt lat="59.9744645" lon="17.7296198">
        <ele>16.4797</ele>
        <time>2012-03-10T12:12:44Z</time>
      </trkpt>
      <trkpt lat="59.9744506" lon="17.7298665">
        <ele>17.9218</ele>
        <time>2012-03-10T12:12:51Z</time>
      </trkpt>
      <trkpt lat="59.9744273" lon="17.7300654">
        <ele>16.9604</ele>
        <time>2012-03-10T12:12:57Z</time>
      </trkpt>
      <trkpt lat="59.9744224" lon="17.730299">
        <ele>18.4023</ele>
        <time>2012-03-10T12:13:04Z</time>
      </trkpt>
      <trkpt lat="59.9744087" lon="17.7305772">
        <ele>19.8444</ele>
        <time>2012-03-10T12:13:12Z</time>
      </trkpt>
      <trkpt lat="59.974391" lon="17.730877">
        <ele>20.325</ele>
        <time>2012-03-10T12:13:21Z</time>
      </trkpt>
      <trkpt lat="59.9743847" lon="17.730907">
        <ele>19.8444</ele>
        <time>2012-03-10T12:13:22Z</time>
      </trkpt>
      <trkpt lat="59.97438" lon="17.7311045">
        <ele>20.8057</ele>
        <time>2012-03-10T12:13:28Z</time>
      </trkpt>
      <trkpt lat="59.9743781" lon="17.7311344">
        <ele>20.8057</ele>
        <time>2012-03-10T12:13:29Z</time>
      </trkpt>
      <trkpt lat="59.9743713" lon="17.7314063">
        <ele>19.3638</ele>
        <time>2012-03-10T12:13:38Z</time>
      </trkpt>
      <trkpt lat="59.9743796" lon="17.7317033">
        <ele>17.4412</ele>
        <time>2012-03-10T12:13:48Z</time>
      </trkpt>
      <trkpt lat="59.974393" lon="17.7319605">
        <ele>17.9218</ele>
        <time>2012-03-10T12:13:56Z</time>
      </trkpt>
      <trkpt lat="59.974408" lon="17.7321778">
        <ele>19.3638</ele>
        <time>2012-03-10T12:14:03Z</time>
      </trkpt>
      <trkpt lat="59.9744126" lon="17.7323835">
        <ele>19.3638</ele>
        <time>2012-03-10T12:14:09Z</time>
      </trkpt>
      <trkpt lat="59.9744305" lon="17.7326625">
        <ele>22.7283</ele>
        <time>2012-03-10T12:14:17Z</time>
      </trkpt>
      <trkpt lat="59.9744316" lon="17.7328304">
        <ele>22.7283</ele>
        <time>2012-03-10T12:14:22Z</time>
      </trkpt>
      <trkpt lat="59.974419" lon="17.7330667">
        <ele>21.2864</ele>
        <time>2012-03-10T12:14:29Z</time>
      </trkpt>
      <trkpt lat="59.9743972" lon="17.7333719">
        <ele>23.209</ele>
        <time>2012-03-10T12:14:38Z</time>
      </trkpt>
      <trkpt lat="59.974373" lon="17.7337024">
        <ele>24.1703</ele>
        <time>2012-03-10T12:14:48Z</time>
      </trkpt>
      <trkpt lat="59.9743491" lon="17.7340148">
        <ele>22.2476</ele>
        <time>2012-03-10T12:14:58Z</time>
      </trkpt>
      <trkpt lat="59.974338" lon="17.7342529">
        <ele>21.767</ele>
        <time>2012-03-10T12:15:06Z</time>
      </trkpt>
      <trkpt lat="59.9743289" lon="17.734503">
        <ele>21.2864</ele>
        <time>2012-03-10T12:15:14Z</time>
      </trkpt>
      <trkpt lat="59.9743345" lon="17.7347539">
        <ele>20.8057</ele>
        <time>2012-03-10T12:15:22Z</time>
      </trkpt>
      <trkpt lat="59.9743382" lon="17.7349461">
        <ele>20.8057</ele>
        <time>2012-03-10T12:15:28Z</time>
      </trkpt>
      <trkpt lat="59.9743854" lon="17.7351869">
        <ele>21.767</ele>
        <time>2012-03-10T12:15:35Z</time>
      </trkpt>
      <trkpt lat="59.9744204" lon="17.7354066">
        <ele>22.2476</ele>
        <time>2012-03-10T12:15:41Z</time>
      </trkpt>
      <trkpt lat="59.9744652" lon="17.7355791">
        <ele>21.767</ele>
        <time>2012-03-10T12:15:46Z</time>
      </trkpt>
      <trkpt lat="59.9745283" lon="17.7357504">
        <ele>20.325</ele>
        <time>2012-03-10T12:15:51Z</time>
      </trkpt>
      <trkpt lat="59.9745128" lon="17.7359611">
        <ele>16.9604</ele>
        <time>2012-03-10T12:15:57Z</time>
      </trkpt>
      <trkpt lat="59.9745268" lon="17.7361328">
        <ele>18.4023</ele>
        <time>2012-03-10T12:16:02Z</time>
      </trkpt>
      <trkpt lat="59.9745486" lon="17.7362452">
        <ele>17.4412</ele>
        <time>2012-03-10T12:16:07Z</time>
      </trkpt>
      <trkpt lat="59.9745602" lon="17.7363005">
        <ele>17.4412</ele>
        <time>2012-03-10T12:16:09Z</time>
      </trkpt>
      <trkpt lat="59.9746058" lon="17.7363907">
        <ele>17.9218</ele>
        <time>2012-03-10T12:16:13Z</time>
      </trkpt>
      <trkpt lat="59.9747177" lon="17.7366182">
        <ele>21.2864</ele>
        <time>2012-03-10T12:16:21Z</time>
      </trkpt>
      <trkpt lat="59.9747676" lon="17.7367746">
        <ele>22.2476</ele>
        <time>2012-03-10T12:16:27Z</time>
      </trkpt>
      <trkpt lat="59.9748294" lon="17.7369203">
        <ele>21.767</ele>
        <time>2012-03-10T12:16:33Z</time>
      </trkpt>
      <trkpt lat="59.974864" lon="17.7370347">
        <ele>22.2476</ele>
        <time>2012-03-10T12:16:37Z</time>
      </trkpt>
      <trkpt lat="59.9748671" lon="17.7370674">
        <ele>22.2476</ele>
        <time>2012-03-10T12:16:38Z</time>
      </trkpt>
      <trkpt lat="59.9749239" lon="17.7372294">
        <ele>22.7283</ele>
        <time>2012-03-10T12:16:45Z</time>
      </trkpt>
      <trkpt lat="59.9749728" lon="17.7373908">
        <ele>22.7283</ele>
        <time>2012-03-10T12:16:52Z</time>
      </trkpt>
      <trkpt lat="59.9750242" lon="17.7375107">
        <ele>24.1703</ele>
        <time>2012-03-10T12:16:58Z</time>
      </trkpt>
      <trkpt lat="59.9750966" lon="17.7376345">
        <ele>24.651</ele>
        <time>2012-03-10T12:17:04Z</time>
      </trkpt>
      <trkpt lat="59.9751643" lon="17.7377605">
        <ele>25.6123</ele>
        <time>2012-03-10T12:17:10Z</time>
      </trkpt>
      <trkpt lat="59.9752404" lon="17.7379179">
        <ele>27.0543</ele>
        <time>2012-03-10T12:17:17Z</time>
      </trkpt>
      <trkpt lat="59.975309" lon="17.7380487">
        <ele>27.5349</ele>
        <time>2012-03-10T12:17:24Z</time>
      </trkpt>
      <trkpt lat="59.9754234" lon="17.7382156">
        <ele>27.5349</ele>
        <time>2012-03-10T12:17:33Z</time>
      </trkpt>
      <trkpt lat="59.9755268" lon="17.7383854">
        <ele>27.5349</ele>
        <time>2012-03-10T12:17:41Z</time>
      </trkpt>
      <trkpt lat="59.9756374" lon="17.7385188">
        <ele>28.4962</ele>
        <time>2012-03-10T12:17:47Z</time>
      </trkpt>
      <trkpt lat="59.9757042" lon="17.7386655">
        <ele>30.4188</ele>
        <time>2012-03-10T12:17:53Z</time>
      </trkpt>
      <trkpt lat="59.9757815" lon="17.7388141">
        <ele>30.8995</ele>
        <time>2012-03-10T12:18:00Z</time>
      </trkpt>
      <trkpt lat="59.9758772" lon="17.7389513">
        <ele>29.4575</ele>
        <time>2012-03-10T12:18:07Z</time>
      </trkpt>
      <trkpt lat="59.9759615" lon="17.739074">
        <ele>28.0155</ele>
        <time>2012-03-10T12:18:13Z</time>
      </trkpt>
      <trkpt lat="59.976018" lon="17.7391476">
        <ele>26.5736</ele>
        <time>2012-03-10T12:18:17Z</time>
      </trkpt>
      <trkpt lat="59.9760742" lon="17.7392621">
        <ele>27.5349</ele>
        <time>2012-03-10T12:18:22Z</time>
      </trkpt>
      <trkpt lat="59.9761373" lon="17.7394536">
        <ele>28.4962</ele>
        <time>2012-03-10T12:18:30Z</time>
      </trkpt>
      <trkpt lat="59.976201" lon="17.7395838">
        <ele>29.9381</ele>
        <time>2012-03-10T12:18:36Z</time>
      </trkpt>
      <trkpt lat="59.9762759" lon="17.7396786">
        <ele>30.4188</ele>
        <time>2012-03-10T12:18:42Z</time>
      </trkpt>
      <trkpt lat="59.9763636" lon="17.7397444">
        <ele>33.3029</ele>
        <time>2012-03-10T12:18:48Z</time>
      </trkpt>
      <trkpt lat="59.9764274" lon="17.7397071">
        <ele>34.2642</ele>
        <time>2012-03-10T12:18:53Z</time>
      </trkpt>
      <trkpt lat="59.9764516" lon="17.7396145">
        <ele>25.1317</ele>
        <time>2012-03-10T12:19:00Z</time>
      </trkpt>
      <trkpt lat="59.9765435" lon="17.7394883">
        <ele>24.1703</ele>
        <time>2012-03-10T12:19:07Z</time>
      </trkpt>
      <trkpt lat="59.9766568" lon="17.7393987">
        <ele>22.7283</ele>
        <time>2012-03-10T12:19:15Z</time>
      </trkpt>
      <trkpt lat="59.9767365" lon="17.7393569">
        <ele>22.2476</ele>
        <time>2012-03-10T12:19:20Z</time>
      </trkpt>
      <trkpt lat="59.9768458" lon="17.7392938">
        <ele>22.2476</ele>
        <time>2012-03-10T12:19:27Z</time>
      </trkpt>
      <trkpt lat="59.9769231" lon="17.7392751">
        <ele>23.209</ele>
        <time>2012-03-10T12:19:32Z</time>
      </trkpt>
      <trkpt lat="59.9770007" lon="17.7392308">
        <ele>24.1703</ele>
        <time>2012-03-10T12:19:37Z</time>
      </trkpt>
      <trkpt lat="59.9771013" lon="17.7391972">
        <ele>26.0929</ele>
        <time>2012-03-10T12:19:43Z</time>
      </trkpt>
      <trkpt lat="59.9772097" lon="17.7391362">
        <ele>27.0543</ele>
        <time>2012-03-10T12:19:50Z</time>
      </trkpt>
      <trkpt lat="59.9772851" lon="17.739088">
        <ele>23.6896</ele>
        <time>2012-03-10T12:19:57Z</time>
      </trkpt>
      <trkpt lat="59.9773664" lon="17.7390291">
        <ele>22.2476</ele>
        <time>2012-03-10T12:20:03Z</time>
      </trkpt>
      <trkpt lat="59.9774452" lon="17.7389875">
        <ele>21.767</ele>
        <time>2012-03-10T12:20:09Z</time>
      </trkpt>
      <trkpt lat="59.9775507" lon="17.7389789">
        <ele>22.2476</ele>
        <time>2012-03-10T12:20:16Z</time>
      </trkpt>
      <trkpt lat="59.9776562" lon="17.7389952">
        <ele>19.3638</ele>
        <time>2012-03-10T12:20:23Z</time>
      </trkpt>
      <trkpt lat="59.9777652" lon="17.7390254">
        <ele>19.8444</ele>
        <time>2012-03-10T12:20:30Z</time>
      </trkpt>
      <trkpt lat="59.9778739" lon="17.7390777">
        <ele>23.209</ele>
        <time>2012-03-10T12:20:36Z</time>
      </trkpt>
      <trkpt lat="59.9779885" lon="17.739136">
        <ele>25.1317</ele>
        <time>2012-03-10T12:20:42Z</time>
      </trkpt>
      <trkpt lat="59.9780838" lon="17.7391747">
        <ele>27.5349</ele>
        <time>2012-03-10T12:20:48Z</time>
      </trkpt>
      <trkpt lat="59.9781819" lon="17.7392175">
        <ele>27.5349</ele>
        <time>2012-03-10T12:20:55Z</time>
      </trkpt>
      <trkpt lat="59.9782879" lon="17.7392622">
        <ele>26.5736</ele>
        <time>2012-03-10T12:21:02Z</time>
      </trkpt>
      <trkpt lat="59.9783854" lon="17.7392953">
        <ele>23.6896</ele>
        <time>2012-03-10T12:21:09Z</time>
      </trkpt>
      <trkpt lat="59.9784668" lon="17.7393211">
        <ele>19.8444</ele>
        <time>2012-03-10T12:21:15Z</time>
      </trkpt>
      <trkpt lat="59.9785298" lon="17.7393154">
        <ele>15.5184</ele>
        <time>2012-03-10T12:21:20Z</time>
      </trkpt>
      <trkpt lat="59.9785403" lon="17.739318">
        <ele>15.0377</ele>
        <time>2012-03-10T12:21:21Z</time>
      </trkpt>
      <trkpt lat="59.9786445" lon="17.7393313">
        <ele>15.5184</ele>
        <time>2012-03-10T12:21:27Z</time>
      </trkpt>
      <trkpt lat="59.9786989" lon="17.739344">
        <ele>15.0377</ele>
        <time>2012-03-10T12:21:30Z</time>
      </trkpt>
      <trkpt lat="59.9788007" lon="17.7393724">
        <ele>19.3638</ele>
        <time>2012-03-10T12:21:34Z</time>
      </trkpt>
    </trkseg>
  </trk>
</gpx>